createdAt,value
2023-04-05T00:01:01.395Z,5.72
2023-04-05T00:03:35.635Z,5.68
2023-04-05T00:06:11.936Z,5.66
2023-04-05T00:08:46.964Z,5.63
2023-04-05T00:11:23.868Z,5.60
2023-04-05T00:13:58.038Z,5.57
2023-04-05T00:16:31.956Z,5.54
2023-04-05T00:19:06.669Z,5.49
2023-04-05T00:21:43.404Z,5.48
2023-04-05T00:24:17.860Z,5.47
2023-04-05T00:26:51.470Z,5.43
2023-04-05T00:29:24.782Z,5.41
2023-04-05T00:31:58.790Z,5.37
2023-04-05T00:34:33.885Z,5.33
2023-04-05T00:37:07.376Z,5.28
2023-04-05T00:39:40.912Z,5.26
2023-04-05T00:42:14.421Z,5.24
2023-04-05T00:44:48.181Z,5.18
2023-04-05T00:47:21.846Z,5.11
2023-04-05T00:49:57.985Z,5.04
2023-04-05T00:52:32.374Z,5.00
2023-04-05T00:55:08.426Z,5.01
2023-04-05T00:57:42.310Z,5.00
2023-04-05T01:00:17.369Z,5.05
2023-04-05T01:02:53.359Z,5.09
2023-04-05T01:05:34.730Z,5.10
2023-04-05T01:08:12.029Z,5.13
2023-04-05T01:10:48.926Z,5.14
2023-04-05T01:13:22.995Z,5.16
2023-04-05T01:15:56.643Z,5.17
2023-04-05T01:18:33.157Z,5.20
2023-04-05T01:21:12.503Z,5.22
2023-04-05T01:23:49.421Z,5.25
2023-04-05T01:26:42.674Z,5.21
2023-04-05T01:29:52.610Z,5.18
2023-04-05T01:32:53.994Z,5.17
2023-04-05T01:35:31.304Z,5.04
2023-04-05T01:38:06.727Z,5.00
2023-04-05T01:40:41.994Z,4.98
2023-04-05T01:43:19.469Z,4.99
2023-04-05T01:45:52.809Z,4.98
2023-04-05T01:48:26.430Z,5.00
2023-04-05T01:51:00.037Z,5.00
2023-04-05T01:53:34.418Z,4.98
2023-04-05T01:56:10.005Z,4.94
2023-04-05T01:58:43.533Z,4.97
2023-04-05T02:01:16.950Z,4.95
2023-04-05T02:03:50.746Z,4.93
2023-04-05T02:06:24.705Z,4.90
2023-04-05T02:08:58.271Z,4.87
2023-04-05T02:11:31.644Z,4.81
2023-04-05T02:14:05.433Z,4.78
2023-04-05T02:16:40.912Z,4.79
2023-04-05T02:19:16.216Z,4.81
2023-04-05T02:21:52.581Z,4.83
2023-04-05T02:24:26.095Z,4.85
2023-04-05T02:26:59.769Z,4.84
2023-04-05T02:29:33.482Z,4.80
2023-04-05T02:32:07.730Z,4.79
2023-04-05T02:34:42.265Z,4.81
2023-04-05T02:37:16.016Z,4.84
2023-04-05T02:39:49.714Z,4.88
2023-04-05T02:42:23.068Z,4.89
2023-04-05T02:44:56.670Z,4.92
2023-04-05T02:47:29.860Z,4.94
2023-04-05T02:50:05.682Z,4.94
2023-04-05T02:52:40.780Z,4.87
2023-04-05T02:55:14.382Z,4.78
2023-04-05T02:57:48.113Z,4.74
2023-04-05T03:00:24.378Z,4.65
2023-04-05T03:02:58.832Z,4.66
2023-04-05T03:05:32.517Z,4.69
2023-04-05T03:08:06.968Z,4.69
2023-04-05T03:10:42.379Z,4.69
2023-04-05T03:13:17.845Z,4.65
2023-04-05T03:15:53.609Z,4.64
2023-04-05T03:18:27.660Z,4.65
2023-04-05T03:21:04.817Z,4.72
2023-04-05T03:23:39.358Z,4.85
2023-04-05T03:26:14.127Z,4.88
2023-04-05T03:28:49.075Z,4.89
2023-04-05T03:31:22.844Z,4.94
2023-04-05T03:33:56.202Z,4.96
2023-04-05T03:36:33.201Z,4.97
2023-04-05T03:39:08.477Z,5.01
2023-04-05T03:41:42.513Z,5.00
2023-04-05T03:44:16.398Z,5.06
2023-04-05T03:46:50.060Z,5.10
2023-04-05T03:49:23.516Z,5.19
2023-04-05T03:51:57.099Z,5.21
2023-04-05T03:54:30.693Z,5.20
2023-04-05T03:57:06.279Z,5.22
2023-04-05T03:59:39.838Z,5.19
2023-04-05T04:02:15.151Z,5.27
2023-04-05T04:04:48.906Z,5.37
2023-04-05T04:07:22.560Z,5.48
2023-04-05T04:09:57.913Z,5.59
2023-04-05T04:12:34.209Z,5.72
2023-04-05T04:15:12.981Z,5.80
2023-04-05T04:17:51.477Z,5.85
2023-04-05T04:20:33.954Z,5.89
2023-04-05T04:23:19.890Z,5.90
2023-04-05T04:26:05.199Z,5.90
2023-04-05T04:28:42.076Z,5.97
2023-04-05T04:31:23.234Z,6.02
2023-04-05T04:34:03.300Z,6.08
2023-04-05T04:36:45.818Z,6.13
2023-04-05T04:39:27.632Z,6.11
2023-04-05T04:42:10.603Z,6.20
2023-04-05T04:44:48.826Z,6.27
2023-04-05T04:47:24.230Z,6.29
2023-04-05T04:50:02.104Z,6.34
2023-04-05T04:52:36.778Z,6.46
2023-04-05T04:55:14.399Z,6.63
2023-04-05T04:57:49.478Z,6.82
2023-04-05T05:00:25.074Z,7.00
2023-04-05T05:02:58.970Z,6.99
2023-04-05T05:05:32.489Z,7.00
2023-04-05T05:08:06.550Z,7.06
2023-04-05T05:10:40.049Z,6.99
2023-04-05T05:13:13.580Z,7.03
2023-04-05T05:15:48.801Z,7.08
2023-04-05T05:18:22.899Z,7.07
2023-04-05T05:20:56.996Z,7.20
2023-04-05T05:23:31.091Z,7.33
2023-04-05T05:26:07.439Z,7.36
2023-04-05T05:28:41.626Z,7.40
2023-04-05T05:31:17.179Z,7.34
2023-04-05T05:33:51.314Z,7.27
2023-04-05T05:36:25.858Z,7.18
2023-04-05T05:38:59.751Z,7.02
2023-04-05T05:41:33.787Z,6.99
2023-04-05T05:44:07.572Z,7.05
2023-04-05T05:46:41.304Z,7.10
2023-04-05T05:49:14.919Z,7.21
2023-04-05T05:51:48.581Z,7.47
2023-04-05T05:54:23.535Z,7.69
2023-04-05T05:56:57.055Z,7.93
2023-04-05T05:59:31.224Z,7.91
2023-04-05T06:02:04.723Z,7.84
2023-04-05T06:04:38.830Z,7.68
2023-04-05T06:07:12.486Z,7.55
2023-04-05T06:09:47.727Z,7.40
2023-04-05T06:12:23.235Z,7.39
2023-04-05T06:14:56.770Z,7.39
2023-04-05T06:17:30.860Z,7.50
2023-04-05T06:20:05.272Z,7.71
2023-04-05T06:22:40.424Z,7.83
2023-04-05T06:25:15.423Z,7.95
2023-04-05T06:27:49.193Z,7.97
2023-04-05T06:30:23.470Z,7.99
2023-04-05T06:32:57.448Z,8.00
2023-04-05T06:35:31.024Z,7.99
2023-04-05T06:38:04.335Z,8.02
2023-04-05T06:40:37.786Z,8.05
2023-04-05T06:43:12.339Z,8.23
2023-04-05T06:45:46.619Z,8.39
2023-04-05T06:48:21.480Z,8.63
2023-04-05T06:51:01.292Z,8.82
2023-04-05T06:53:34.952Z,8.90
2023-04-05T06:56:10.000Z,8.99
2023-04-05T06:58:44.230Z,9.06
2023-04-05T07:01:18.808Z,9.14
2023-04-05T07:03:52.452Z,9.32
2023-04-05T07:06:25.958Z,9.52
2023-04-05T07:08:59.583Z,9.69
2023-04-05T07:11:32.928Z,10.01
2023-04-05T07:14:06.490Z,10.47
2023-04-05T07:16:40.000Z,10.99
2023-04-05T07:19:14.003Z,11.66
2023-04-05T07:21:47.654Z,11.96
2023-04-05T07:24:21.348Z,12.26
2023-04-05T07:26:54.784Z,12.34
2023-04-05T07:29:28.332Z,12.13
2023-04-05T07:32:01.906Z,12.01
2023-04-05T07:34:35.769Z,12.18
2023-04-05T07:37:09.368Z,12.62
2023-04-05T07:39:42.745Z,12.80
2023-04-05T07:42:17.940Z,13.22
2023-04-05T07:44:51.346Z,14.03
2023-04-05T07:47:24.779Z,15.23
2023-04-05T07:49:58.437Z,16.31
2023-04-05T07:52:31.986Z,16.95
2023-04-05T07:55:05.726Z,17.26
2023-04-05T07:57:39.240Z,17.41
2023-04-05T08:00:15.622Z,17.27
2023-04-05T08:02:49.413Z,16.87
2023-04-05T08:05:22.959Z,17.05
2023-04-05T08:07:58.467Z,17.66
2023-04-05T08:10:32.055Z,18.05
2023-04-05T08:13:06.992Z,18.26
2023-04-05T08:15:41.489Z,18.60
2023-04-05T08:18:16.952Z,19.30
2023-04-05T08:20:53.684Z,20.68
2023-04-05T08:23:27.319Z,21.34
2023-04-05T08:26:02.484Z,22.31
2023-04-05T08:28:35.858Z,23.57
2023-04-05T08:31:10.470Z,24.87
2023-04-05T08:33:44.376Z,25.34
2023-04-05T08:36:18.071Z,25.55
2023-04-05T08:38:51.786Z,25.13
2023-04-05T08:41:28.269Z,25.31
2023-04-05T08:44:03.695Z,25.33
2023-04-05T08:46:38.019Z,26.28
2023-04-05T08:49:12.303Z,26.50
2023-04-05T08:51:45.821Z,27.07
2023-04-05T08:54:20.088Z,26.67
2023-04-05T08:56:55.307Z,26.36
2023-04-05T08:59:29.735Z,26.40
2023-04-05T09:02:04.864Z,26.57
2023-04-05T09:04:42.697Z,25.86
2023-04-05T09:07:16.874Z,25.77
2023-04-05T09:09:53.130Z,24.97
2023-04-05T09:12:28.269Z,23.84
2023-04-05T09:15:03.690Z,22.91
2023-04-05T09:17:38.977Z,22.73
2023-04-05T09:20:12.888Z,22.47
2023-04-05T09:22:47.103Z,22.28
2023-04-05T09:25:38.932Z,22.40
2023-04-05T09:28:13.119Z,22.94
2023-04-05T09:30:49.589Z,22.96
2023-04-05T09:33:24.490Z,22.92
2023-04-05T09:35:58.443Z,22.72
2023-04-05T09:38:47.817Z,21.98
2023-04-05T09:41:21.301Z,21.65
2023-04-05T09:43:55.614Z,20.94
2023-04-05T09:46:38.008Z,20.13
2023-04-05T09:49:11.967Z,19.52
2023-04-05T09:51:46.332Z,19.49
2023-04-05T09:54:19.880Z,19.74
2023-04-05T09:56:58.485Z,19.81
2023-04-05T09:59:33.603Z,19.87
2023-04-05T10:02:07.630Z,19.87
2023-04-05T10:04:45.444Z,19.74
2023-04-05T10:07:20.238Z,19.36
2023-04-05T10:09:54.112Z,18.81
2023-04-05T10:12:29.675Z,18.50
2023-04-05T10:15:03.366Z,18.34
2023-04-05T10:17:42.809Z,17.96
2023-04-05T10:20:18.960Z,17.78
2023-04-05T10:23:05.515Z,17.77
2023-04-05T10:25:53.186Z,17.36
2023-04-05T10:28:31.463Z,16.83
2023-04-05T10:31:13.172Z,16.75
2023-04-05T10:33:48.733Z,16.65
2023-04-05T10:36:26.392Z,16.67
2023-04-05T10:39:00.956Z,16.81
2023-04-05T10:41:36.780Z,17.13
2023-04-05T10:44:24.819Z,17.21
2023-04-05T10:46:47.633Z,17.48
2023-04-05T10:49:24.192Z,17.80
2023-04-05T10:51:58.750Z,17.83
2023-04-05T10:54:34.737Z,17.80
2023-04-05T10:57:10.430Z,17.73
2023-04-05T10:59:50.758Z,17.49
2023-04-05T11:02:32.447Z,17.19
2023-04-05T11:05:10.539Z,16.97
2023-04-05T11:07:50.938Z,16.75
2023-04-05T11:10:26.779Z,16.84
2023-04-05T11:13:12.701Z,16.64
2023-04-05T11:15:46.393Z,16.61
2023-04-05T11:18:24.861Z,16.48
2023-04-05T11:21:08.619Z,16.44
2023-04-05T11:24:02.636Z,16.37
2023-04-05T11:26:47.776Z,16.22
2023-04-05T11:29:22.752Z,16.29
2023-04-05T11:32:03.788Z,16.40
2023-04-05T11:34:39.532Z,16.48
2023-04-05T11:37:13.359Z,16.62
2023-04-05T11:39:47.137Z,16.63
2023-04-05T11:42:20.931Z,16.89
2023-04-05T11:44:55.998Z,16.91
2023-04-05T11:47:30.061Z,16.87
2023-04-05T11:50:03.449Z,16.85
2023-04-05T11:52:36.909Z,17.18
2023-04-05T11:55:11.874Z,17.64
2023-04-05T11:57:46.285Z,17.86
2023-04-05T12:00:23.132Z,18.01
2023-04-05T12:02:59.646Z,17.96
2023-04-05T12:05:51.150Z,17.95
2023-04-05T12:08:25.501Z,18.05
2023-04-05T12:11:01.467Z,18.12
2023-04-05T12:13:36.057Z,18.25
2023-04-05T12:16:11.974Z,18.57
2023-04-05T12:18:45.594Z,18.50
2023-04-05T12:21:19.217Z,18.93
2023-04-05T12:23:53.276Z,18.90
2023-04-05T12:26:27.037Z,18.68
2023-04-05T12:29:02.885Z,18.72
2023-04-05T12:31:41.613Z,18.89
2023-04-05T12:34:16.390Z,19.11
2023-04-05T12:36:50.007Z,19.39
2023-04-05T12:39:24.704Z,19.42
2023-04-05T12:42:02.432Z,19.20
2023-04-05T12:44:35.731Z,19.21
2023-04-05T12:47:10.741Z,19.39
2023-04-05T12:49:44.369Z,19.32
2023-04-05T12:52:22.596Z,19.44
2023-04-05T12:54:57.583Z,19.26
2023-04-05T12:57:34.429Z,18.92
2023-04-05T13:00:11.539Z,18.64
2023-04-05T13:02:45.113Z,18.74
2023-04-05T13:05:19.016Z,18.94
2023-04-05T13:07:52.724Z,19.18
2023-04-05T13:10:27.649Z,19.28
2023-04-05T13:13:01.353Z,19.09
2023-04-05T13:15:34.874Z,18.65
2023-04-05T13:18:08.598Z,18.41
2023-04-05T13:20:42.242Z,18.46
2023-04-05T13:23:15.845Z,18.34
2023-04-05T13:25:49.296Z,18.03
2023-04-05T13:28:22.750Z,17.86
2023-04-05T13:30:56.343Z,17.87
2023-04-05T13:33:29.945Z,17.49
2023-04-05T13:36:03.490Z,17.26
2023-04-05T13:38:37.271Z,17.20
2023-04-05T13:41:10.707Z,17.21
2023-04-05T13:43:44.182Z,17.31
2023-04-05T13:46:17.802Z,17.31
2023-04-05T13:48:51.319Z,17.31
2023-04-05T13:51:25.280Z,17.22
2023-04-05T13:53:59.122Z,17.30
2023-04-05T13:56:32.879Z,17.31
2023-04-05T13:59:06.507Z,17.37
2023-04-05T14:01:40.229Z,17.27
2023-04-05T14:04:13.887Z,17.09
2023-04-05T14:06:47.624Z,16.89
2023-04-05T14:09:21.305Z,16.98
2023-04-05T14:11:55.352Z,17.21
2023-04-05T14:14:29.051Z,17.34
2023-04-05T14:17:02.867Z,17.21
2023-04-05T14:19:38.151Z,16.88
2023-04-05T14:22:11.581Z,16.63
2023-04-05T14:24:45.179Z,16.48
2023-04-05T14:27:20.490Z,16.26
2023-04-05T14:29:56.047Z,16.15
2023-04-05T14:32:33.038Z,16.02
2023-04-05T14:35:05.489Z,16.04
2023-04-05T14:37:39.342Z,16.17
2023-04-05T14:40:14.583Z,16.15
2023-04-05T14:42:50.590Z,15.90
2023-04-05T14:45:25.960Z,15.69
2023-04-05T14:48:00.050Z,15.28
2023-04-05T14:50:33.822Z,14.81
2023-04-05T14:53:08.409Z,14.49
2023-04-05T14:55:42.221Z,14.25
2023-04-05T14:58:15.698Z,13.98
2023-04-05T15:00:51.430Z,13.84
2023-04-05T15:03:27.408Z,13.73
2023-04-05T15:06:04.869Z,13.51
2023-04-05T15:08:38.929Z,13.30
2023-04-05T15:11:12.675Z,13.12
2023-04-05T15:13:46.523Z,13.10
2023-04-05T15:16:20.335Z,13.01
2023-04-05T15:18:55.495Z,12.88
2023-04-05T15:21:29.756Z,12.71
2023-04-05T15:24:03.680Z,12.55
2023-04-05T15:26:37.329Z,12.42
2023-04-05T15:29:11.223Z,12.35
2023-04-05T15:31:44.928Z,12.25
2023-04-05T15:34:18.529Z,12.15
2023-04-05T15:36:53.404Z,12.00
2023-04-05T15:39:27.328Z,11.88
2023-04-05T15:42:02.502Z,11.79
2023-04-05T15:44:36.206Z,11.72
2023-04-05T15:47:10.969Z,11.58
2023-04-05T15:49:45.071Z,11.42
2023-04-05T15:52:18.504Z,11.29
2023-04-05T15:54:52.041Z,11.17
2023-04-05T15:57:26.427Z,11.06
2023-04-05T16:00:00.229Z,11.00
2023-04-05T16:02:34.857Z,10.93
2023-04-05T16:05:09.609Z,10.93
2023-04-05T16:07:43.276Z,10.93
2023-04-05T16:10:17.041Z,10.87
2023-04-05T16:12:50.461Z,10.84
2023-04-05T16:15:24.724Z,10.80
2023-04-05T16:17:58.513Z,10.77
2023-04-05T16:20:32.824Z,10.70
2023-04-05T16:23:06.972Z,10.60
2023-04-05T16:25:43.965Z,10.50
2023-04-05T16:28:17.750Z,10.45
2023-04-05T16:30:51.996Z,10.41
2023-04-05T16:33:32.067Z,10.39
2023-04-05T16:36:09.115Z,10.37
2023-04-05T16:38:45.053Z,10.29
2023-04-05T16:41:18.506Z,10.21
2023-04-05T16:43:52.729Z,10.13
2023-04-05T16:46:26.601Z,10.02
2023-04-05T16:49:01.344Z,9.90
2023-04-05T16:51:37.032Z,9.76
2023-04-05T16:54:10.832Z,9.66
2023-04-05T16:56:45.613Z,9.59
2023-04-05T16:59:19.516Z,9.52
2023-04-05T17:01:53.350Z,9.44
2023-04-05T17:04:27.264Z,9.39
2023-04-05T17:07:00.855Z,9.30
2023-04-05T17:09:34.485Z,9.24
2023-04-05T17:12:11.939Z,9.18
2023-04-05T17:14:44.664Z,9.16
2023-04-05T17:17:19.564Z,9.09
2023-04-05T17:19:53.561Z,9.05
2023-04-05T17:22:27.181Z,8.98
2023-04-05T17:25:02.782Z,8.91
2023-04-05T17:27:36.482Z,8.84
2023-04-05T17:30:15.724Z,8.75
2023-04-05T17:32:49.292Z,8.72
2023-04-05T17:35:23.501Z,8.71
2023-04-05T17:37:57.196Z,8.71
2023-04-05T17:40:33.411Z,8.66
2023-04-05T17:43:07.652Z,8.59
2023-04-05T17:45:41.723Z,8.55
2023-04-05T17:50:57.877Z,8.60
2023-04-05T17:53:31.537Z,8.43
2023-04-05T17:56:05.149Z,8.37
2023-04-05T17:58:38.450Z,8.26
2023-04-05T18:01:25.347Z,8.23
2023-04-05T18:04:01.709Z,8.21
2023-04-05T18:06:36.601Z,8.21
2023-04-05T18:09:16.624Z,8.18
2023-04-05T18:11:52.368Z,8.15
2023-04-05T18:14:28.910Z,8.14
2023-04-05T18:17:02.667Z,8.12
2023-04-05T18:19:36.006Z,8.12
2023-04-05T18:24:54.174Z,8.17
2023-04-05T18:27:32.658Z,8.03
2023-04-05T18:30:12.498Z,8.01
2023-04-05T18:32:46.346Z,7.97
2023-04-05T18:35:25.298Z,7.91
2023-04-05T18:38:03.734Z,7.86
2023-04-05T18:40:36.856Z,7.83
2023-04-05T18:43:10.081Z,7.76
2023-04-05T18:45:43.299Z,7.69
2023-04-05T18:48:16.717Z,7.61
2023-04-05T18:50:49.961Z,7.57
2023-04-05T18:53:26.281Z,7.53
2023-04-05T18:55:59.425Z,7.50
2023-04-05T18:58:32.736Z,7.43
2023-04-05T19:01:09.381Z,7.38
2023-04-05T19:03:43.046Z,7.35
2023-04-05T19:06:16.787Z,7.30
2023-04-05T19:08:52.617Z,7.22
2023-04-05T19:11:27.443Z,7.17
2023-04-05T19:14:04.103Z,7.14
2023-04-05T19:16:37.461Z,7.11
2023-04-05T19:19:10.939Z,7.04
2023-04-05T19:21:44.040Z,6.99
2023-04-05T19:24:17.223Z,6.96
2023-04-05T19:26:52.722Z,6.94
2023-04-05T19:29:26.529Z,6.91
2023-04-05T19:32:05.649Z,6.82
2023-04-05T19:37:36.547Z,6.79
2023-04-05T19:40:19.714Z,6.65
2023-04-05T19:43:03.632Z,6.61
2023-04-05T19:45:42.368Z,6.58
2023-04-05T19:48:38.656Z,6.51
2023-04-05T19:51:22.040Z,6.44
2023-04-05T19:54:02.089Z,6.35
2023-04-05T19:56:37.430Z,6.34
2023-04-05T19:59:27.121Z,6.30
2023-04-05T20:02:01.655Z,6.25
2023-04-05T20:04:36.681Z,6.18
2023-04-05T20:07:13.015Z,6.14
2023-04-05T20:09:50.484Z,6.11
2023-04-05T20:12:23.964Z,6.10
2023-04-05T20:14:58.675Z,6.06
2023-04-05T20:17:40.920Z,6.05
2023-04-05T20:20:17.463Z,5.98
2023-04-05T20:22:53.528Z,5.92
2023-04-05T20:25:40.802Z,5.90
2023-04-05T20:28:32.091Z,5.89
2023-04-05T20:31:06.558Z,5.88
2023-04-05T20:34:03.051Z,5.83
2023-04-05T20:39:20.585Z,5.89
2023-04-05T20:41:55.793Z,5.74
2023-04-05T20:44:31.584Z,5.73
2023-04-05T20:47:11.831Z,5.68
2023-04-05T20:49:47.115Z,5.61
2023-04-05T20:52:23.165Z,5.58
2023-04-05T20:55:01.784Z,5.56
2023-04-05T20:57:35.047Z,5.51
2023-04-05T21:00:14.890Z,5.48
2023-04-05T21:02:48.596Z,5.43
2023-04-05T21:05:22.164Z,5.41
2023-04-05T21:07:57.953Z,5.43
2023-04-05T21:10:31.687Z,5.41
2023-04-05T21:13:05.106Z,5.37
2023-04-05T21:15:38.611Z,5.34
2023-04-05T21:18:29.157Z,5.28
2023-04-05T21:21:02.541Z,5.23
2023-04-05T21:23:36.644Z,5.19
2023-04-05T21:26:11.682Z,5.17
2023-04-05T21:28:46.972Z,5.11
2023-04-05T21:31:27.710Z,5.05
2023-04-05T21:34:02.436Z,5.02
2023-04-05T21:36:36.284Z,5.00
2023-04-05T21:39:12.074Z,4.97
2023-04-05T21:41:48.945Z,4.93
2023-04-05T21:44:23.998Z,4.90
2023-04-05T21:46:59.539Z,4.88
2023-04-05T21:49:33.035Z,4.85
2023-04-05T21:52:06.869Z,4.83
2023-04-05T21:54:40.525Z,4.82
2023-04-05T21:57:13.998Z,4.79
2023-04-05T21:59:47.539Z,4.74
2023-04-05T22:02:21.244Z,4.73
2023-04-05T22:04:54.824Z,4.69
2023-04-05T22:07:28.512Z,4.66
2023-04-05T22:10:02.754Z,4.62
2023-04-05T22:12:39.382Z,4.59
2023-04-05T22:15:14.015Z,4.56
2023-04-05T22:17:47.508Z,4.51
2023-04-05T22:20:21.291Z,4.50
2023-04-05T22:22:54.833Z,4.46
2023-04-05T22:25:28.679Z,4.42
2023-04-05T22:28:02.219Z,4.42
2023-04-05T22:30:43.813Z,4.41
2023-04-05T22:33:12.851Z,4.41
2023-04-05T22:35:46.581Z,4.36
2023-04-05T22:38:21.709Z,4.34
2023-04-05T22:40:55.134Z,4.30
2023-04-05T22:43:31.970Z,4.28
2023-04-05T22:46:05.776Z,4.23
2023-04-05T22:48:39.525Z,4.19
2023-04-05T22:51:12.899Z,4.13
2023-04-05T22:53:46.312Z,4.07
2023-04-05T22:56:21.650Z,4.05
2023-04-05T22:58:55.091Z,4.02
2023-04-05T23:01:28.656Z,3.99
2023-04-05T23:04:02.213Z,3.96
2023-04-05T23:06:35.808Z,3.93
2023-04-05T23:09:09.554Z,3.88
2023-04-05T23:11:43.393Z,3.81
2023-04-05T23:14:16.861Z,3.76
2023-04-05T23:16:50.388Z,3.73
2023-04-05T23:19:23.939Z,3.71
2023-04-05T23:21:57.697Z,3.68
2023-04-05T23:24:31.303Z,3.67
2023-04-05T23:27:05.038Z,3.61
2023-04-05T23:29:40.950Z,3.57
2023-04-05T23:32:14.553Z,3.52
2023-04-05T23:34:48.320Z,3.45
2023-04-05T23:37:21.835Z,3.42
2023-04-05T23:39:57.594Z,3.38
2023-04-05T23:42:31.000Z,3.34
2023-04-05T23:45:09.015Z,3.32
2023-04-05T23:47:42.179Z,3.24
2023-04-05T23:50:15.971Z,3.19
2023-04-05T23:52:49.644Z,3.16
2023-04-05T23:55:23.093Z,3.14
2023-04-05T23:57:58.080Z,3.13
